Accueil
METAR-TAF:

METAR-TAF

Aéroports :

Base aérienne 709 Cognac-Châteaubernard

Cognac, France

latitude: 45-40N, longitude: 000-19W, altitude: 30 m

Observation

Le bulletin a été fait il y a 10 minutes, à 02:30 UTC
Vent 5 kt de ouest
Température 6°C
Humidité 93%
Pression 1032 hPa
Visibilité: 8000 m
Quelques nuages à une hauteur de 4300 ft

METAR: LFBG 100230Z AUTO 27005KT 8000 FEW043 06/05 Q1032

Heure: 03:40 (02:40 UTC)

Prévision

Le bulletin a été fait il y a 6 heures et 40 minutes, à 20:00 UTC
Prévision valable du 09 à 21 UTC au 10 à 21 UTC
Vent 8 kt de ouest
Visibilité 10 km ou plus
Nuages fragmentés à une hauteur de 3000 ft
Temporairement
du 10 à 05 UTC au 10 à 08 UTC
Visibilité: 0500 m
brouillard

TAF: LFBG 092000Z 0921/1021 28008KT 9999 BKN030 TEMPO 1005/1008 0500 FG

Observations et prévisions météorologiques de plus de 4000 aéroports (messages METAR et TAF).

Les stations disponibles sont représentées par des disques jaunes et rouges sur la carte.

Passer la souris dessus pour voir le nom de la station.

Cliquer dessus pour voir les observations et prévisions météorologiques.

Pour changer de carte: cliquez sur les boutons verts avec une croix noire pour zoomer, sur le bouton vert avec un tiret pour effectuer un zoom arrière, ou sur les flèches vertes pour les cartes adjacentes.


METAR-TAF: